Time;durP1;ratioP1;P1;durP2;ratioP2;P2;SDS_P1;SDS_P2;PMS_P1;PMS_P2;Temp;Humidity;BMP_temperature;BMP_pressure;BME280_temperature;BME280_humidity;BME280_pressure;Samples;Min_cycle;Max_cycle;Signal;HPM_P1;HPM_P2
2023/10/19 00:01:15;;;;;;;11.85;9.80;;;;;;;7.38;100.00;100280.31;5098487;28;20031;-84
2023/10/19 00:03:41;;;;;;;12.30;9.67;;;;;;;7.43;100.00;100291.97;5111472;28;20119;-85
2023/10/19 00:06:06;;;;;;;12.15;9.55;;;;;;;7.20;100.00;100278.13;5122598;27;20649;-86
2023/10/19 00:08:43;;;;;;;10.98;8.90;;;;;;;7.91;100.00;100312.50;5112677;27;20032;-85
2023/10/19 00:11:21;;;;;;;17.70;10.73;;;;;;;7.97;100.00;100287.81;5118337;27;20028;-85
2023/10/19 00:13:50;;;;;;;46.97;11.57;;;;;;;7.82;100.00;100287.94;5089860;28;20031;-85
2023/10/19 00:16:22;;;;;;;48.85;13.27;;;;;;;7.71;100.00;100296.44;5115318;27;20099;-86
2023/10/19 00:18:52;;;;;;;33.28;13.07;;;;;;;8.03;100.00;100313.59;5132183;27;20031;-84
2023/10/19 00:21:23;;;;;;;29.73;12.45;;;;;;;7.44;100.00;100287.50;5108429;27;20030;-85
2023/10/19 00:23:55;;;;;;;19.05;11.48;;;;;;;7.47;100.00;100300.34;5089868;28;20606;-85
2023/10/19 00:26:20;;;;;;;14.35;10.70;;;;;;;7.46;100.00;100304.03;5102120;28;20027;-85
2023/10/19 00:28:52;;;;;;;11.13;9.77;;;;;;;7.32;100.00;100275.75;5124440;27;20398;-85
2023/10/19 00:31:20;;;;;;;11.88;10.05;;;;;;;7.85;100.00;100284.91;5130891;27;20023;-85
2023/10/19 00:33:48;;;;;;;10.93;9.70;;;;;;;7.60;100.00;100254.50;5131757;27;20047;-85
2023/10/19 00:36:20;;;;;;;12.02;9.60;;;;;;;7.98;100.00;100283.31;5121868;27;20031;-85
2023/10/19 00:41:21;;;;;;;10.32;8.82;;;;;;;7.92;100.00;100276.97;5123165;27;20051;-85
2023/10/19 00:43:48;;;;;;;11.30;9.60;;;;;;;8.43;100.00;100284.56;5136718;28;20028;-86
2023/10/19 00:48:46;;;;;;;10.13;8.85;;;;;;;7.94;100.00;100282.09;5121469;28;20084;-85
2023/10/19 00:54:07;;;;;;;10.35;8.52;;;;;;;7.58;100.00;100257.38;5130233;28;20084;-86
2023/10/19 00:56:33;;;;;;;10.70;8.65;;;;;;;7.77;100.00;100234.63;5128209;28;20035;-86
2023/10/19 01:01:48;;;;;;;20.90;10.90;;;;;;;8.25;100.00;100270.97;5111713;27;20038;-85
2023/10/19 01:04:22;;;;;;;33.10;11.40;;;;;;;8.44;100.00;100272.13;5136306;27;20058;-87
2023/10/19 01:09:38;;;;;;;36.67;12.68;;;;;;;7.85;100.00;100255.69;5116790;27;20038;-85
2023/10/19 01:12:29;;;;;;;72.78;12.40;;;;;;;7.88;100.00;100253.66;5126217;27;20506;-85
2023/10/19 01:15:17;;;;;;;50.42;11.13;;;;;;;8.03;100.00;100260.47;5114795;28;20039;-85
2023/10/19 01:17:53;;;;;;;75.32;12.52;;;;;;;7.90;100.00;100263.06;5112564;27;20024;-85
2023/10/19 01:20:22;;;;;;;59.92;13.00;;;;;;;7.95;100.00;100263.31;5104644;27;20445;-85
2023/10/19 01:22:53;;;;;;;106.45;14.25;;;;;;;7.84;100.00;100263.84;5123530;27;20116;-85
2023/10/19 01:25:24;;;;;;;52.00;11.82;;;;;;;7.56;100.00;100227.56;5114489;28;20139;-86
2023/10/19 01:27:54;;;;;;;56.20;11.95;;;;;;;7.83;100.00;100231.16;5134620;27;20023;-86
2023/10/19 01:30:19;;;;;;;49.50;11.73;;;;;;;8.14;100.00;100234.38;5119051;27;20028;-85
2023/10/19 01:32:45;;;;;;;39.35;11.35;;;;;;;7.76;100.00;100221.53;5113945;28;20043;-85
2023/10/19 01:35:11;;;;;;;47.85;13.13;;;;;;;7.54;100.00;100237.56;5114689;28;20027;-85
2023/10/19 01:37:38;;;;;;;83.60;15.18;;;;;;;7.40;100.00;100214.59;5114577;28;20032;-86
2023/10/19 01:40:04;;;;;;;107.88;15.70;;;;;;;7.64;100.00;100235.38;5115597;27;20023;-87
2023/10/19 01:42:30;;;;;;;57.33;14.07;;;;;;;8.03;100.00;100241.88;5121477;27;20031;-85
2023/10/19 01:44:56;;;;;;;50.65;13.88;;;;;;;7.90;100.00;100236.50;5133874;27;20055;-85
2023/10/19 01:47:22;;;;;;;95.07;15.35;;;;;;;7.51;100.00;100206.06;5119306;27;20101;-85
2023/10/19 01:49:52;;;;;;;60.95;14.20;;;;;;;7.58;100.00;100212.25;5115094;27;20028;-86
2023/10/19 01:52:17;;;;;;;58.20;14.68;;;;;;;7.60;100.00;100226.16;5132712;27;20027;-85
2023/10/19 01:54:43;;;;;;;65.88;16.10;;;;;;;7.91;100.00;100230.19;5127028;27;20038;-85
2023/10/19 01:57:08;;;;;;;67.30;15.10;;;;;;;7.95;100.00;100228.78;5112391;28;20031;-85
2023/10/19 01:59:34;;;;;;;52.35;14.48;;;;;;;7.99;100.00;100235.34;5122449;27;20549;-85
2023/10/19 02:01:59;;;;;;;103.72;17.77;;;;;;;7.97;100.00;100228.59;5117888;27;20114;-85
2023/10/19 02:04:26;;;;;;;73.50;15.52;;;;;;;7.63;100.00;100224.94;5134348;27;20035;-84
2023/10/19 02:06:53;;;;;;;88.55;16.60;;;;;;;7.77;100.00;100224.00;5129489;27;20122;-86
2023/10/19 02:09:23;;;;;;;142.07;19.00;;;;;;;7.85;100.00;100225.66;5127041;27;20088;-85
2023/10/19 02:11:55;;;;;;;133.30;19.98;;;;;;;8.22;100.00;100250.13;5116299;27;20034;-86
2023/10/19 02:14:21;;;;;;;60.05;17.70;;;;;;;8.34;100.00;100232.59;5131745;27;20130;-85
2023/10/19 02:16:52;;;;;;;75.75;15.43;;;;;;;8.17;100.00;100247.25;5115396;27;20051;-88
2023/10/19 02:19:22;;;;;;;46.45;15.90;;;;;;;7.96;100.00;100230.41;5127399;27;20056;-85
2023/10/19 02:21:52;;;;;;;38.22;16.15;;;;;;;8.12;100.00;100207.19;5122097;27;20030;-86
2023/10/19 02:24:18;;;;;;;36.00;15.85;;;;;;;8.51;100.00;100248.22;5133648;27;20031;-85
2023/10/19 02:26:49;;;;;;;25.25;14.10;;;;;;;8.56;100.00;100256.38;5130540;27;20080;-85
2023/10/19 02:29:15;;;;;;;53.72;14.85;;;;;;;8.32;100.00;100218.69;5116479;27;20050;-85
2023/10/19 02:31:41;;;;;;;49.42;14.45;;;;;;;8.38;100.00;100252.44;5128723;27;20481;-85
2023/10/19 02:34:14;;;;;;;22.13;13.60;;;;;;;8.45;100.00;100242.66;5114308;28;20128;-85
2023/10/19 02:36:41;;;;;;;19.73;11.98;;;;;;;8.41;100.00;100246.75;5114729;28;20500;-85
2023/10/19 02:39:08;;;;;;;28.83;10.63;;;;;;;7.88;100.00;100222.59;5114421;28;20027;-85
2023/10/19 02:41:46;;;;;;;29.85;9.40;;;;;;;8.17;100.00;100239.28;5102227;27;20035;-85
2023/10/19 02:44:22;;;;;;;23.58;11.93;;;;;;;8.09;100.00;100224.34;5112086;28;20074;-85
2023/10/19 02:46:53;;;;;;;23.35;10.43;;;;;;;8.28;100.00;100240.56;5112933;27;20051;-85
2023/10/19 02:49:21;;;;;;;39.42;11.27;;;;;;;8.03;100.00;100225.97;5127975;27;20118;-86
2023/10/19 02:51:47;;;;;;;19.17;9.57;;;;;;;8.14;100.00;100243.16;5114865;27;20023;-86
2023/10/19 02:54:22;;;;;;;26.48;9.63;;;;;;;8.15;100.00;100225.38;5107781;28;20039;-85
2023/10/19 02:56:52;;;;;;;30.40;9.88;;;;;;;7.94;100.00;100237.75;5108924;27;20070;-85
2023/10/19 02:59:24;;;;;;;41.08;10.02;;;;;;;7.68;100.00;100227.81;5123664;27;20028;-86
2023/10/19 03:02:01;;;;;;;69.25;13.05;;;;;;;7.14;100.00;100213.38;5106125;27;20483;-85
2023/10/19 03:04:28;;;;;;;101.75;14.00;;;;;;;7.19;100.00;100213.66;5113642;27;20035;-85
2023/10/19 03:06:56;;;;;;;76.57;12.67;;;;;;;7.60;100.00;100215.53;5112594;28;20019;-85
2023/10/19 03:11:56;;;;;;;98.55;14.90;;;;;;;7.93;100.00;100251.25;5116143;27;20044;-86
2023/10/19 03:14:25;;;;;;;65.22;14.90;;;;;;;7.90;100.00;100236.50;5123053;27;20028;-85
2023/10/19 03:16:50;;;;;;;;;;;;;;;7.86;100.00;100253.84;5112987;28;20027;-85
2023/10/19 03:19:16;;;;;;;54.75;12.60;;;;;;;7.62;100.00;100239.22;5133959;27;19923;-86
2023/10/19 03:21:42;;;;;;;73.53;13.65;;;;;;;7.37;100.00;100257.41;5116165;27;20072;-86
2023/10/19 03:24:35;;;;;;;58.85;11.68;;;;;;;7.68;100.00;100232.31;5125732;27;20092;-85
2023/10/19 03:27:18;;;;;;;47.58;11.07;;;;;;;7.86;100.00;100245.88;5112972;28;20032;-86
2023/10/19 03:29:54;;;;;;;44.80;11.10;;;;;;;7.35;100.00;100246.19;5129277;27;20074;-85
2023/10/19 03:32:26;;;;;;;66.25;11.68;;;;;;;7.08;100.00;100250.47;5109212;28;20615;-85
2023/10/19 03:34:59;;;;;;;44.25;12.77;;;;;;;6.90;100.00;100237.66;5104992;28;20400;-85
2023/10/19 03:37:29;;;;;;;54.72;12.95;;;;;;;7.30;100.00;100230.84;5127453;27;20031;-85
2023/10/19 03:39:57;;;;;;;74.25;13.43;;;;;;;7.32;100.00;100239.44;5128305;27;20034;-85
2023/10/19 03:42:26;;;;;;;53.45;13.20;;;;;;;6.81;100.00;100253.69;5132450;27;20047;-85
2023/10/19 03:44:55;;;;;;;56.67;13.20;;;;;;;6.97;100.00;100226.13;5121650;27;20039;-85
2023/10/19 03:47:25;;;;;;;45.65;12.65;;;;;;;6.75;100.00;100245.69;5126911;27;20024;-85
2023/10/19 03:49:50;;;;;;;46.90;11.73;;;;;;;7.00;100.00;100252.22;5128925;27;20080;-85
2023/10/19 03:54:42;;;;;;;35.60;12.32;;;;;;;7.51;100.00;100235.28;5133540;27;20055;-84
2023/10/19 03:57:11;;;;;;;41.30;12.70;;;;;;;6.86;100.00;100223.16;5120502;27;20053;-85
2023/10/19 03:59:41;;;;;;;38.38;12.57;;;;;;;7.10;100.00;100251.09;5123219;27;20133;-85
2023/10/19 04:02:14;;;;;;;58.85;13.25;;;;;;;7.17;100.00;100249.31;5113598;27;20036;-86
2023/10/19 04:04:43;;;;;;;30.13;11.63;;;;;;;7.32;100.00;100249.22;5109853;28;20039;-85
2023/10/19 04:07:11;;;;;;;67.05;13.75;;;;;;;7.34;100.00;100229.44;5091766;28;20028;-86
2023/10/19 04:09:56;;;;;;;25.52;12.63;;;;;;;7.20;100.00;100230.38;5134253;27;20038;-85
2023/10/19 04:12:22;;;;;;;38.40;12.02;;;;;;;7.16;100.00;100221.97;5131133;27;20042;-85
2023/10/19 04:14:48;;;;;;;32.03;12.48;;;;;;;7.20;100.00;100236.47;5120131;27;20027;-85
2023/10/19 04:17:13;;;;;;;42.08;13.30;;;;;;;7.29;100.00;100209.81;5122909;27;20416;-85
2023/10/19 04:19:39;;;;;;;33.42;13.32;;;;;;;6.92;100.00;100249.72;5110285;28;20474;-86
2023/10/19 04:22:04;;;;;;;60.90;13.10;;;;;;;6.34;100.00;100235.69;5125266;27;20035;-87
2023/10/19 04:24:32;;;;;;;56.08;13.13;;;;;;;6.10;100.00;100215.66;5126211;27;20514;-86
2023/10/19 04:26:59;;;;;;;36.63;11.73;;;;;;;6.43;100.00;100232.72;5111346;28;20024;-86
2023/10/19 04:29:27;;;;;;;71.57;13.60;;;;;;;6.28;100.00;100258.44;5116876;27;20491;-85
2023/10/19 04:31:55;;;;;;;37.00;11.65;;;;;;;6.29;100.00;100249.47;5122222;27;20072;-85
2023/10/19 04:34:21;;;;;;;50.63;13.77;;;;;;;6.28;100.00;100231.13;5122673;27;20034;-86
2023/10/19 04:36:48;;;;;;;41.20;13.13;;;;;;;6.01;100.00;100250.16;5125489;27;20024;-85
2023/10/19 04:39:13;;;;;;;59.80;13.18;;;;;;;6.29;100.00;100270.66;5113653;28;20051;-83
2023/10/19 04:41:39;;;;;;;35.47;12.68;;;;;;;6.59;100.00;100252.03;5126765;28;20460;-86
2023/10/19 04:44:08;;;;;;;63.75;14.13;;;;;;;6.80;100.00;100246.78;5116608;28;20527;-85
2023/10/19 04:46:33;;;;;;;65.75;13.98;;;;;;;6.98;100.00;100253.44;5109671;28;20032;-85
2023/10/19 04:48:59;;;;;;;73.68;14.77;;;;;;;6.97;100.00;100252.63;5126344;28;20034;-85
2023/10/19 04:51:25;;;;;;;57.90;15.82;;;;;;;6.98;100.00;100248.13;5123611;28;20024;-85
2023/10/19 04:53:50;;;;;;;73.57;16.95;;;;;;;6.81;100.00;100269.59;5108919;28;20066;-85
2023/10/19 04:56:15;;;;;;;65.53;15.18;;;;;;;6.95;100.00;100252.00;5109593;28;20100;-85
2023/10/19 04:58:41;;;;;;;47.20;13.95;;;;;;;7.14;100.00;100253.16;5109767;28;20062;-85
2023/10/19 05:01:07;;;;;;;63.78;15.60;;;;;;;7.49;100.00;100263.84;5125696;28;20042;-86
2023/10/19 05:03:32;;;;;;;44.85;13.23;;;;;;;7.11;100.00;100242.13;5115502;28;20019;-85
2023/10/19 05:05:58;;;;;;;55.47;13.05;;;;;;;7.13;100.00;100253.34;5129849;28;20023;-85
2023/10/19 05:08:25;;;;;;;54.38;14.65;;;;;;;7.15;100.00;100253.97;5115983;28;20024;-85
2023/10/19 05:10:52;;;;;;;36.63;14.07;;;;;;;6.95;100.00;100237.94;5112999;28;20046;-85
2023/10/19 05:13:19;;;;;;;35.90;12.35;;;;;;;7.34;100.00;100253.31;5119139;28;20784;-85
2023/10/19 05:15:44;;;;;;;28.55;12.18;;;;;;;7.30;100.00;100251.25;5108925;28;20096;-85
2023/10/19 05:18:10;;;;;;;30.10;12.60;;;;;;;7.55;100.00;100265.72;5106029;28;20036;-86
2023/10/19 05:20:40;;;;;;;26.02;11.38;;;;;;;7.39;100.00;100260.69;5108092;28;20034;-85
2023/10/19 05:23:06;;;;;;;28.25;14.15;;;;;;;6.96;100.00;100261.56;5109193;28;20028;-86
2023/10/19 05:25:32;;;;;;;39.75;15.10;;;;;;;7.16;100.00;100255.63;5112725;28;20058;-86
2023/10/19 05:27:58;;;;;;;22.92;11.98;;;;;;;7.17;100.00;100250.16;5129260;28;20055;-84
2023/10/19 05:30:23;;;;;;;24.90;11.10;;;;;;;6.67;100.00;100251.94;5118080;28;20476;-85
2023/10/19 05:32:50;;;;;;;24.40;11.68;;;;;;;6.66;100.00;100266.19;5119036;28;20043;-86
2023/10/19 05:35:22;;;;;;;19.42;10.75;;;;;;;6.25;100.00;100256.16;5111573;28;20133;-85
2023/10/19 05:37:49;;;;;;;25.85;11.18;;;;;;;6.31;100.00;100260.69;5113598;28;20088;-85
2023/10/19 05:40:15;;;;;;;22.50;12.10;;;;;;;6.80;100.00;100283.88;5120617;28;20035;-84
2023/10/19 05:42:40;;;;;;;21.00;11.80;;;;;;;6.33;100.00;100261.34;5108898;28;20032;-85
2023/10/19 05:45:06;;;;;;;26.33;12.45;;;;;;;6.32;100.00;100272.13;5118978;28;20404;-85
2023/10/19 05:47:32;;;;;;;22.48;12.05;;;;;;;6.36;100.00;100263.63;5112822;28;20609;-85
2023/10/19 05:49:57;;;;;;;26.42;12.55;;;;;;;6.64;100.00;100278.81;5117546;27;20014;-85
2023/10/19 05:52:22;;;;;;;18.65;12.02;;;;;;;6.78;100.00;100270.00;5126937;27;20396;-84
2023/10/19 05:54:49;;;;;;;36.55;13.30;;;;;;;6.51;100.00;100291.91;5116507;27;20019;-85
2023/10/19 05:57:15;;;;;;;33.45;13.20;;;;;;;6.58;100.00;100279.56;5128000;27;20034;-84
2023/10/19 05:59:40;;;;;;;28.75;12.05;;;;;;;6.88;100.00;100290.88;5115788;27;20027;-85
2023/10/19 06:02:07;;;;;;;40.38;13.27;;;;;;;6.62;100.00;100275.53;5112800;28;20746;-85
2023/10/19 06:04:33;;;;;;;48.22;14.38;;;;;;;7.13;100.00;100271.91;5102588;27;20413;-85
2023/10/19 06:06:58;;;;;;;58.60;15.90;;;;;;;7.53;100.00;100283.66;5112951;28;20480;-84
2023/10/19 06:09:29;;;;;;;38.20;15.88;;;;;;;7.70;100.00;100286.03;5112816;28;20031;-86
2023/10/19 06:11:55;;;;;;;30.80;14.00;;;;;;;7.79;100.00;100308.75;5112901;27;20039;-86
2023/10/19 06:14:20;;;;;;;65.20;16.05;;;;;;;7.70;100.00;100283.38;5129747;27;20031;-85
2023/10/19 06:16:46;;;;;;;39.63;15.68;;;;;;;7.48;100.00;100288.75;5125112;27;20027;-86
2023/10/19 06:19:11;;;;;;;76.90;15.73;;;;;;;7.42;100.00;100277.06;5111743;28;20019;-87
2023/10/19 06:21:37;;;;;;;37.17;16.17;;;;;;;7.54;100.00;100282.66;5123592;27;20051;-84
2023/10/19 06:24:02;;;;;;;100.65;20.60;;;;;;;8.16;100.00;100267.69;5115606;27;20047;-85
2023/10/19 06:26:28;;;;;;;80.25;17.88;;;;;;;8.35;100.00;100292.69;5115287;27;20031;-85
2023/10/19 06:28:58;;;;;;;96.65;18.30;;;;;;;8.39;100.00;100270.00;5112853;28;20495;-86
2023/10/19 06:31:25;;;;;;;40.65;17.38;;;;;;;8.38;100.00;100289.66;5115579;27;20038;-85
2023/10/19 06:33:50;;;;;;;52.53;18.15;;;;;;;7.88;100.00;100270.41;5113198;27;20167;-88
2023/10/19 06:36:16;;;;;;;42.60;18.30;;;;;;;7.82;100.00;100256.06;5125358;27;20554;-86
2023/10/19 06:38:42;;;;;;;37.45;17.27;;;;;;;8.18;100.00;100283.44;5127490;27;20031;-86
2023/10/19 06:41:14;;;;;;;31.92;16.40;;;;;;;8.39;100.00;100287.81;5127346;27;20027;-87
2023/10/19 06:43:40;;;;;;;44.38;27.92;;;;;;;8.40;100.00;100289.47;5110940;28;20042;-85
2023/10/19 06:46:06;;;;;;;38.83;17.02;;;;;;;8.72;100.00;100281.78;5110778;28;20036;-84
2023/10/19 06:48:33;;;;;;;28.50;18.60;;;;;;;9.25;100.00;100282.69;5112607;27;20417;-85
2023/10/19 06:51:00;;;;;;;30.00;15.95;;;;;;;9.02;100.00;100279.59;5125595;27;20047;-85
2023/10/19 06:53:25;;;;;;;21.52;14.93;;;;;;;8.89;100.00;100268.94;5115827;27;20055;-86
2023/10/19 06:55:51;;;;;;;22.63;14.93;;;;;;;8.68;100.00;100243.34;5116632;27;20032;-85
2023/10/19 06:58:19;;;;;;;22.02;15.70;;;;;;;8.75;100.00;100250.31;5093307;28;20031;-86
2023/10/19 07:00:45;;;;;;;22.10;16.10;;;;;;;8.80;100.00;100279.75;5110998;28;20106;-86
2023/10/19 07:03:11;;;;;;;30.73;17.58;;;;;;;8.96;100.00;100256.47;5111519;27;20096;-86
2023/10/19 07:05:36;;;;;;;28.55;18.90;;;;;;;9.10;100.00;100279.41;5114911;27;20027;-87
2023/10/19 07:08:04;;;;;;;30.33;19.38;;;;;;;9.14;100.00;100275.31;5123319;27;20043;-86
2023/10/19 07:10:29;;;;;;;34.72;21.38;;;;;;;9.50;100.00;100263.44;5111673;27;20024;-86
2023/10/19 07:12:56;;;;;;;30.02;20.00;;;;;;;9.63;100.00;100274.03;5129905;27;20511;-84
2023/10/19 07:15:23;;;;;;;33.35;22.48;;;;;;;9.59;100.00;100262.16;5109468;28;20035;-84
2023/10/19 07:17:52;;;;;;;39.00;25.15;;;;;;;9.58;100.00;100254.38;5120916;27;20071;-83
2023/10/19 07:20:35;;;;;;;48.72;32.35;;;;;;;9.76;100.00;100251.06;5125252;27;20027;-84
2023/10/19 07:25:51;;;;;;;35.13;25.25;;;;;;;10.86;100.00;100283.00;5098238;27;20093;-85
2023/10/19 07:28:17;;;;;;;33.50;25.17;;;;;;;10.86;100.00;100259.81;5123163;27;20042;-85
2023/10/19 07:30:43;;;;;;;39.97;27.63;;;;;;;11.49;100.00;100273.28;5111432;27;20051;-85
2023/10/19 07:33:09;;;;;;;40.72;27.80;;;;;;;11.15;100.00;100270.09;5128627;27;20058;-83
2023/10/19 07:35:42;;;;;;;42.63;29.05;;;;;;;11.23;100.00;100273.28;5112825;27;20031;-84
2023/10/19 07:38:08;;;;;;;38.05;26.10;;;;;;;11.62;100.00;100271.28;5119346;27;20058;-85
2023/10/19 07:40:36;;;;;;;36.55;25.48;;;;;;;11.82;100.00;100256.94;5113619;27;20059;-85
2023/10/19 07:43:03;;;;;;;37.15;26.17;;;;;;;11.69;100.00;100243.69;5105648;28;20119;-85
2023/10/19 07:45:31;;;;;;;33.35;24.83;;;;;;;12.06;100.00;100244.56;5107684;27;20076;-84
2023/10/19 07:47:57;;;;;;;37.33;26.63;;;;;;;12.50;100.00;100258.59;5118073;27;20034;-83
2023/10/19 07:50:23;;;;;;;38.80;25.73;;;;;;;12.59;100.00;100265.25;5114636;27;20752;-86
2023/10/19 07:52:53;;;;;;;37.63;26.95;;;;;;;13.02;99.47;100263.41;5113124;27;20040;-84
2023/10/19 07:55:22;;;;;;;33.97;25.15;;;;;;;13.11;98.00;100262.00;5107922;27;20035;-84
2023/10/19 07:57:50;;;;;;;32.55;24.55;;;;;;;13.10;96.32;100265.75;5134163;27;20749;-84
2023/10/19 08:00:17;;;;;;;35.35;25.27;;;;;;;13.20;93.68;100249.94;5130638;27;20023;-85
2023/10/19 08:02:45;;;;;;;33.57;25.27;;;;;;;13.18;94.51;100253.91;5117931;27;20468;-86
2023/10/19 08:05:11;;;;;;;;;;;;;;;13.54;94.75;100258.22;5112005;27;20028;-86
2023/10/19 08:07:39;;;;;;;54.13;36.58;;;;;;;13.10;98.07;100260.41;5109485;28;19999;-86
2023/10/19 08:10:08;;;;;;;31.08;22.50;;;;;;;13.13;96.91;100246.53;5109481;28;20035;-85
2023/10/19 08:12:35;;;;;;;30.83;22.65;;;;;;;13.41;95.44;100243.22;5118518;27;20416;-83
2023/10/19 08:15:01;;;;;;;30.40;22.85;;;;;;;13.61;90.28;100261.63;5120684;27;20048;-84
2023/10/19 08:17:26;;;;;;;30.88;22.75;;;;;;;13.46;96.14;100242.50;5119890;27;20057;-85
2023/10/19 08:19:52;;;;;;;29.63;21.80;;;;;;;13.46;95.52;100242.50;5110628;28;20020;-86
2023/10/19 08:22:17;;;;;;;26.42;21.27;;;;;;;13.11;94.87;100219.19;5112852;27;20027;-87
2023/10/19 08:24:43;;;;;;;38.45;28.30;;;;;;;13.75;91.14;100229.19;5110480;27;20031;-85
2023/10/19 08:27:10;;;;;;;25.50;19.17;;;;;;;13.66;91.07;100221.50;5110333;28;20049;-85
2023/10/19 08:29:36;;;;;;;26.30;18.80;;;;;;;14.07;88.39;100243.00;5125436;27;20461;-85
2023/10/19 08:32:02;;;;;;;21.90;17.45;;;;;;;14.27;88.41;100238.03;5110682;27;20512;-84
2023/10/19 08:34:29;;;;;;;28.45;20.02;;;;;;;14.51;85.67;100242.50;5111070;28;20099;-85
2023/10/19 08:36:55;;;;;;;22.50;16.52;;;;;;;14.48;83.55;100249.16;5112429;28;20083;-85
2023/10/19 08:39:21;;;;;;;20.70;15.25;;;;;;;14.46;82.53;100230.63;5116467;27;20032;-85
2023/10/19 08:41:49;;;;;;;22.13;15.73;;;;;;;14.88;80.51;100228.69;5124450;28;20110;-84
2023/10/19 08:44:18;;;;;;;17.33;13.38;;;;;;;15.26;73.92;100233.28;5129884;27;20027;-83
2023/10/19 08:46:45;;;;;;;19.70;14.88;;;;;;;15.59;74.11;100259.34;5123986;28;20023;-85
2023/10/19 08:49:15;;;;;;;21.63;15.15;;;;;;;14.94;77.11;100241.13;5107809;28;20103;-84
2023/10/19 08:51:46;;;;;;;21.20;14.77;;;;;;;14.95;79.74;100232.00;5107626;28;20071;-85
2023/10/19 08:54:15;;;;;;;23.98;17.33;;;;;;;14.95;79.02;100219.38;5125667;28;20031;-85
2023/10/19 08:56:41;;;;;;;24.40;16.63;;;;;;;15.49;78.32;100221.56;5109315;28;20035;-84
2023/10/19 08:59:12;;;;;;;27.15;17.23;;;;;;;15.30;79.64;100230.94;5109707;28;20080;-84
2023/10/19 09:01:38;;;;;;;24.25;15.93;;;;;;;15.32;79.33;100228.81;5119016;28;20037;-85
2023/10/19 09:04:05;;;;;;;27.92;16.88;;;;;;;15.46;79.82;100219.34;5127851;28;20027;-86
2023/10/19 09:06:41;;;;;;;24.70;15.25;;;;;;;15.53;80.07;100211.94;5113437;27;20835;-83
2023/10/19 09:09:13;;;;;;;27.58;16.15;;;;;;;15.70;78.32;100211.09;5120907;27;20102;-84
2023/10/19 09:11:40;;;;;;;24.45;16.67;;;;;;;15.70;78.36;100227.22;5107942;28;20842;-83
2023/10/19 09:14:06;;;;;;;29.88;18.52;;;;;;;15.87;78.26;100217.22;5118206;28;20023;-84
2023/10/19 09:16:32;;;;;;;27.95;18.60;;;;;;;16.70;76.51;100214.34;5109613;28;20429;-86
2023/10/19 09:18:57;;;;;;;28.75;18.60;;;;;;;16.46;72.96;100190.44;5111889;28;20035;-85
2023/10/19 09:21:25;;;;;;;27.83;18.08;;;;;;;16.82;72.47;100190.78;5123229;27;20023;-85
2023/10/19 09:23:56;;;;;;;25.77;17.77;;;;;;;16.87;74.88;100204.28;5119152;27;20027;-84
2023/10/19 09:26:23;;;;;;;26.52;17.35;;;;;;;16.51;74.43;100172.72;5120001;27;20063;-84
2023/10/19 09:28:50;;;;;;;26.23;18.45;;;;;;;16.45;75.24;100201.47;5116776;27;20088;-85
2023/10/19 09:31:16;;;;;;;24.35;17.65;;;;;;;16.31;76.03;100201.06;5115501;27;20079;-84
2023/10/19 09:33:44;;;;;;;24.13;15.52;;;;;;;16.81;74.52;100202.63;5125317;27;20104;-84
2023/10/19 09:36:14;;;;;;;26.38;16.83;;;;;;;16.70;71.40;100179.34;5105752;28;20027;-85
2023/10/19 09:38:44;;;;;;;27.52;18.40;;;;;;;16.93;72.59;100186.28;5115169;27;20035;-83
2023/10/19 09:41:12;;;;;;;28.77;18.40;;;;;;;16.97;71.61;100191.97;5130310;27;20083;-85
2023/10/19 09:43:41;;;;;;;25.17;17.90;;;;;;;17.05;71.52;100192.31;5115327;27;20038;-85
2023/10/19 09:46:08;;;;;;;26.10;18.08;;;;;;;17.70;68.77;100194.84;5118444;27;20566;-86
2023/10/19 09:48:41;;;;;;;26.63;18.45;;;;;;;17.75;67.32;100185.97;5130934;27;20113;-86
2023/10/19 09:51:09;;;;;;;23.77;16.63;;;;;;;17.92;66.74;100181.22;5112828;27;20031;-85
2023/10/19 09:53:35;;;;;;;26.80;16.77;;;;;;;18.44;64.93;100193.72;5125699;27;20028;-86
2023/10/19 09:56:06;;;;;;;19.75;14.75;;;;;;;18.30;63.53;100186.44;5111535;27;20043;-84
2023/10/19 09:58:57;;;;;;;21.90;16.58;;;;;;;18.82;62.33;100183.53;5111418;27;20060;-85
2023/10/19 10:01:24;;;;;;;22.50;15.82;;;;;;;18.77;61.01;100180.00;5106822;28;20027;-85
2023/10/19 10:03:51;;;;;;;21.40;15.32;;;;;;;19.14;61.15;100168.91;5116014;27;20023;-87
2023/10/19 10:06:28;;;;;;;21.67;15.73;;;;;;;19.20;62.51;100158.88;5110615;28;20032;-83
2023/10/19 10:08:54;;;;;;;23.55;15.73;;;;;;;19.64;58.18;100171.75;5115185;27;20054;-85
2023/10/19 10:11:28;;;;;;;22.17;16.13;;;;;;;19.74;59.25;100149.28;5110059;27;20035;-85
2023/10/19 10:13:58;;;;;;;25.40;16.17;;;;;;;19.87;57.87;100151.38;5112995;27;20027;-83
2023/10/19 10:16:33;;;;;;;23.52;16.00;;;;;;;19.53;59.42;100154.72;5107363;27;20110;-83
2023/10/19 10:18:59;;;;;;;25.92;17.90;;;;;;;19.23;60.81;100124.00;5102606;28;20020;-83
2023/10/19 10:21:26;;;;;;;23.17;16.13;;;;;;;18.39;61.58;100118.16;5124747;27;20099;-83
2023/10/19 10:23:59;;;;;;;21.45;15.85;;;;;;;18.71;64.67;100127.03;5115950;27;20089;-82
2023/10/19 10:26:29;;;;;;;22.45;15.55;;;;;;;19.48;60.63;100133.13;5125782;27;20031;-84
2023/10/19 10:29:28;;;;;;;23.15;15.15;;;;;;;19.16;61.29;100122.66;5115511;27;20027;-82
2023/10/19 10:31:53;;;;;;;20.25;15.65;;;;;;;19.54;58.11;100123.09;5105505;27;20067;-84
2023/10/19 10:34:37;;;;;;;16.42;13.18;;;;;;;19.47;56.72;100110.69;5114243;27;20050;-82
2023/10/19 10:37:10;;;;;;;17.75;12.30;;;;;;;19.41;59.49;100095.56;5110290;28;20039;-84
2023/10/19 10:39:37;;;;;;;16.15;11.38;;;;;;;19.31;56.61;100081.25;5110958;27;20035;-83
2023/10/19 10:42:05;;;;;;;16.02;11.25;;;;;;;19.75;55.58;100069.72;5127816;27;20396;-83
2023/10/19 10:44:47;;;;;;;18.65;12.43;;;;;;;20.05;54.82;100099.28;5115221;27;20051;-83
2023/10/19 10:47:18;;;;;;;15.60;9.73;;;;;;;19.96;53.82;100092.88;5112024;27;20122;-83
2023/10/19 10:49:57;;;;;;;17.95;12.20;;;;;;;20.69;52.88;100093.94;5115610;27;20115;-83
2023/10/19 10:52:33;;;;;;;17.60;11.43;;;;;;;20.79;51.58;100099.25;5096203;27;20087;-83
2023/10/19 10:55:10;;;;;;;14.05;9.93;;;;;;;20.76;51.10;100089.00;5127762;27;20043;-83
2023/10/19 10:57:37;;;;;;;13.60;10.10;;;;;;;20.04;53.71;100073.31;5112958;27;20063;-83
2023/10/19 11:00:15;;;;;;;13.23;10.05;;;;;;;20.13;52.82;100080.84;5114281;27;20266;-84
2023/10/19 11:02:42;;;;;;;;;;;;;;;20.31;53.45;100092.88;5127458;27;20110;-83
2023/10/19 11:05:11;;;;;;;13.77;9.57;;;;;;;20.34;51.83;100086.91;5111537;27;19912;-83
2023/10/19 11:07:59;;;;;;;14.18;9.73;;;;;;;20.36;51.75;100066.56;5110314;28;20032;-81
2023/10/19 11:10:29;;;;;;;10.40;7.88;;;;;;;20.36;51.63;100090.13;5113657;27;20027;-83
2023/10/19 11:13:06;;;;;;;13.00;8.38;;;;;;;20.77;50.22;100074.34;5111895;27;20068;-82
2023/10/19 11:15:33;;;;;;;13.75;8.88;;;;;;;20.51;51.67;100067.53;5121792;27;20034;-82
2023/10/19 11:17:58;;;;;;;13.18;9.13;;;;;;;20.90;50.99;100043.03;5128431;27;20042;-84
2023/10/19 11:20:27;;;;;;;12.68;9.45;;;;;;;21.63;48.71;100052.72;5127187;27;20458;-83
2023/10/19 11:22:55;;;;;;;12.25;9.38;;;;;;;22.04;47.35;100062.19;5111379;28;20067;-83
2023/10/19 11:25:28;;;;;;;13.88;9.43;;;;;;;22.02;47.41;100059.75;5114798;27;20023;-83
2023/10/19 11:27:58;;;;;;;10.68;8.38;;;;;;;22.12;44.98;100058.00;5112286;27;20035;-83
2023/10/19 11:30:28;;;;;;;10.43;8.15;;;;;;;21.99;46.43;100056.84;5112169;27;20023;-84
2023/10/19 11:32:58;;;;;;;14.13;8.35;;;;;;;21.96;47.10;100043.84;5131816;27;20126;-83
2023/10/19 11:35:29;;;;;;;12.23;8.10;;;;;;;22.36;45.76;100047.84;5127459;27;20027;-84
2023/10/19 11:38:00;;;;;;;15.25;9.48;;;;;;;22.75;44.09;100015.91;5109964;28;20554;-83